sensor_id;sensor_type;location;lat;lon;timestamp;P1;durP1;ratioP1;P2;durP2;ratioP2
35518;SDS011;21627;48.216;16.482;2022-12-18T00:03:53;21.10;;;9.27;;
35518;SDS011;21627;48.216;16.482;2022-12-18T00:06:22;12.77;;;7.70;;
35518;SDS011;21627;48.216;16.482;2022-12-18T00:08:50;18.93;;;8.10;;
35518;SDS011;21627;48.216;16.482;2022-12-18T00:11:19;19.40;;;9.00;;
35518;SDS011;21627;48.216;16.482;2022-12-18T00:13:49;17.30;;;8.77;;
35518;SDS011;21627;48.216;16.482;2022-12-18T00:16:18;15.40;;;8.80;;
35518;SDS011;21627;48.216;16.482;2022-12-18T00:18:48;12.73;;;8.30;;
35518;SDS011;21627;48.216;16.482;2022-12-18T00:21:17;17.30;;;8.80;;
35518;SDS011;21627;48.216;16.482;2022-12-18T00:23:45;17.70;;;8.90;;
35518;SDS011;21627;48.216;16.482;2022-12-18T00:26:15;19.27;;;8.60;;
35518;SDS011;21627;48.216;16.482;2022-12-18T00:28:45;18.93;;;8.20;;
35518;SDS011;21627;48.216;16.482;2022-12-18T00:31:13;14.43;;;7.97;;
35518;SDS011;21627;48.216;16.482;2022-12-18T00:33:45;18.73;;;8.47;;
35518;SDS011;21627;48.216;16.482;2022-12-18T00:36:24;15.93;;;8.60;;
35518;SDS011;21627;48.216;16.482;2022-12-18T00:38:55;16.90;;;9.30;;
35518;SDS011;21627;48.216;16.482;2022-12-18T00:41:24;15.93;;;9.70;;
35518;SDS011;21627;48.216;16.482;2022-12-18T00:44:11;15.10;;;9.40;;
35518;SDS011;21627;48.216;16.482;2022-12-18T00:46:40;16.93;;;8.97;;
35518;SDS011;21627;48.216;16.482;2022-12-18T00:49:09;16.70;;;9.10;;
35518;SDS011;21627;48.216;16.482;2022-12-18T00:51:39;14.40;;;9.23;;
35518;SDS011;21627;48.216;16.482;2022-12-18T00:54:06;22.90;;;10.50;;
35518;SDS011;21627;48.216;16.482;2022-12-18T00:56:35;18.30;;;9.70;;
35518;SDS011;21627;48.216;16.482;2022-12-18T00:59:14;18.83;;;10.17;;
35518;SDS011;21627;48.216;16.482;2022-12-18T01:01:42;17.20;;;9.90;;
35518;SDS011;21627;48.216;16.482;2022-12-18T01:04:11;17.43;;;9.67;;
35518;SDS011;21627;48.216;16.482;2022-12-18T01:06:38;19.57;;;10.40;;
35518;SDS011;21627;48.216;16.482;2022-12-18T01:09:05;15.50;;;9.10;;
35518;SDS011;21627;48.216;16.482;2022-12-18T01:11:33;20.13;;;10.50;;
35518;SDS011;21627;48.216;16.482;2022-12-18T01:14:00;18.07;;;10.13;;
35518;SDS011;21627;48.216;16.482;2022-12-18T01:16:27;20.17;;;10.90;;
35518;SDS011;21627;48.216;16.482;2022-12-18T01:18:54;18.10;;;9.50;;
35518;SDS011;21627;48.216;16.482;2022-12-18T01:21:22;21.03;;;11.10;;
35518;SDS011;21627;48.216;16.482;2022-12-18T01:23:51;21.33;;;10.73;;
35518;SDS011;21627;48.216;16.482;2022-12-18T01:26:20;21.80;;;10.43;;
35518;SDS011;21627;48.216;16.482;2022-12-18T01:28:47;22.33;;;11.30;;
35518;SDS011;21627;48.216;16.482;2022-12-18T01:31:21;20.87;;;11.10;;
35518;SDS011;21627;48.216;16.482;2022-12-18T01:33:52;25.20;;;11.33;;
35518;SDS011;21627;48.216;16.482;2022-12-18T01:38:49;21.40;;;11.30;;
35518;SDS011;21627;48.216;16.482;2022-12-18T01:41:18;23.07;;;11.23;;
35518;SDS011;21627;48.216;16.482;2022-12-18T01:43:55;20.27;;;11.77;;
35518;SDS011;21627;48.216;16.482;2022-12-18T01:46:24;22.83;;;11.93;;
35518;SDS011;21627;48.216;16.482;2022-12-18T01:49:02;25.53;;;12.30;;
35518;SDS011;21627;48.216;16.482;2022-12-18T01:51:29;21.60;;;11.33;;
35518;SDS011;21627;48.216;16.482;2022-12-18T01:53:57;22.77;;;12.20;;
35518;SDS011;21627;48.216;16.482;2022-12-18T01:56:25;24.60;;;12.53;;
35518;SDS011;21627;48.216;16.482;2022-12-18T02:01:28;25.60;;;12.30;;
35518;SDS011;21627;48.216;16.482;2022-12-18T02:09:42;30.57;;;14.00;;
35518;SDS011;21627;48.216;16.482;2022-12-18T02:12:53;22.43;;;12.00;;
35518;SDS011;21627;48.216;16.482;2022-12-18T02:15:32;25.70;;;12.70;;
35518;SDS011;21627;48.216;16.482;2022-12-18T02:18:27;26.67;;;13.87;;
35518;SDS011;21627;48.216;16.482;2022-12-18T02:24:30;27.20;;;14.00;;
35518;SDS011;21627;48.216;16.482;2022-12-18T02:27:18;32.08;;;13.88;;
35518;SDS011;21627;48.216;16.482;2022-12-18T02:32:31;32.50;;;14.80;;
35518;SDS011;21627;48.216;16.482;2022-12-18T02:35:06;26.20;;;13.60;;
35518;SDS011;21627;48.216;16.482;2022-12-18T02:37:43;27.23;;;14.90;;
35518;SDS011;21627;48.216;16.482;2022-12-18T02:40:13;29.13;;;13.97;;
35518;SDS011;21627;48.216;16.482;2022-12-18T02:42:43;29.53;;;14.17;;
35518;SDS011;21627;48.216;16.482;2022-12-18T02:45:10;33.90;;;15.07;;
35518;SDS011;21627;48.216;16.482;2022-12-18T02:47:38;27.07;;;13.13;;
35518;SDS011;21627;48.216;16.482;2022-12-18T02:50:13;28.63;;;14.07;;
35518;SDS011;21627;48.216;16.482;2022-12-18T02:52:56;28.53;;;14.13;;
35518;SDS011;21627;48.216;16.482;2022-12-18T02:56:04;27.63;;;13.57;;
35518;SDS011;21627;48.216;16.482;2022-12-18T02:58:54;34.60;;;14.90;;
35518;SDS011;21627;48.216;16.482;2022-12-18T03:04:16;31.27;;;14.53;;
35518;SDS011;21627;48.216;16.482;2022-12-18T03:07:07;30.57;;;15.17;;
35518;SDS011;21627;48.216;16.482;2022-12-18T03:09:42;26.97;;;14.10;;
35518;SDS011;21627;48.216;16.482;2022-12-18T03:12:28;31.50;;;15.33;;
35518;SDS011;21627;48.216;16.482;2022-12-18T03:17:46;33.07;;;14.27;;
35518;SDS011;21627;48.216;16.482;2022-12-18T03:20:29;29.30;;;14.87;;
35518;SDS011;21627;48.216;16.482;2022-12-18T03:23:10;29.93;;;14.37;;
35518;SDS011;21627;48.216;16.482;2022-12-18T03:25:42;30.43;;;14.93;;
35518;SDS011;21627;48.216;16.482;2022-12-18T03:28:13;30.87;;;16.10;;
35518;SDS011;21627;48.216;16.482;2022-12-18T03:30:46;34.90;;;16.17;;
35518;SDS011;21627;48.216;16.482;2022-12-18T03:33:21;29.07;;;14.90;;
35518;SDS011;21627;48.216;16.482;2022-12-18T03:35:56;31.20;;;15.03;;
35518;SDS011;21627;48.216;16.482;2022-12-18T03:38:23;35.33;;;16.73;;
35518;SDS011;21627;48.216;16.482;2022-12-18T03:43:37;34.77;;;16.37;;
35518;SDS011;21627;48.216;16.482;2022-12-18T03:46:29;33.83;;;15.63;;
35518;SDS011;21627;48.216;16.482;2022-12-18T03:49:14;36.63;;;16.07;;
35518;SDS011;21627;48.216;16.482;2022-12-18T03:52:20;29.30;;;14.80;;
35518;SDS011;21627;48.216;16.482;2022-12-18T03:54:59;36.30;;;15.87;;
35518;SDS011;21627;48.216;16.482;2022-12-18T03:57:29;39.43;;;17.30;;
35518;SDS011;21627;48.216;16.482;2022-12-18T04:00:00;26.93;;;14.57;;
35518;SDS011;21627;48.216;16.482;2022-12-18T04:02:36;32.17;;;15.77;;
35518;SDS011;21627;48.216;16.482;2022-12-18T04:05:08;34.77;;;15.50;;
35518;SDS011;21627;48.216;16.482;2022-12-18T04:07:36;37.93;;;16.40;;
35518;SDS011;21627;48.216;16.482;2022-12-18T04:10:06;36.87;;;16.67;;
35518;SDS011;21627;48.216;16.482;2022-12-18T04:12:36;40.33;;;16.50;;
35518;SDS011;21627;48.216;16.482;2022-12-18T04:15:05;36.67;;;16.53;;
35518;SDS011;21627;48.216;16.482;2022-12-18T04:17:33;38.20;;;17.70;;
35518;SDS011;21627;48.216;16.482;2022-12-18T04:20:00;39.17;;;17.27;;
35518;SDS011;21627;48.216;16.482;2022-12-18T04:22:27;40.13;;;17.67;;
35518;SDS011;21627;48.216;16.482;2022-12-18T04:24:57;40.27;;;18.17;;
35518;SDS011;21627;48.216;16.482;2022-12-18T04:27:24;34.67;;;17.13;;
35518;SDS011;21627;48.216;16.482;2022-12-18T04:29:51;31.13;;;16.53;;
35518;SDS011;21627;48.216;16.482;2022-12-18T04:32:18;36.80;;;17.53;;
35518;SDS011;21627;48.216;16.482;2022-12-18T04:34:46;38.57;;;17.17;;
35518;SDS011;21627;48.216;16.482;2022-12-18T04:37:13;43.17;;;18.90;;
35518;SDS011;21627;48.216;16.482;2022-12-18T04:39:40;40.23;;;18.27;;
35518;SDS011;21627;48.216;16.482;2022-12-18T04:42:07;41.97;;;18.00;;
35518;SDS011;21627;48.216;16.482;2022-12-18T04:44:35;35.90;;;17.67;;
35518;SDS011;21627;48.216;16.482;2022-12-18T04:47:03;34.10;;;17.17;;
35518;SDS011;21627;48.216;16.482;2022-12-18T04:49:30;39.77;;;18.17;;
35518;SDS011;21627;48.216;16.482;2022-12-18T04:51:57;38.30;;;17.50;;
35518;SDS011;21627;48.216;16.482;2022-12-18T04:54:24;38.30;;;17.57;;
35518;SDS011;21627;48.216;16.482;2022-12-18T04:56:51;37.07;;;16.40;;
35518;SDS011;21627;48.216;16.482;2022-12-18T04:59:19;41.07;;;18.10;;
35518;SDS011;21627;48.216;16.482;2022-12-18T05:01:46;43.23;;;17.73;;
35518;SDS011;21627;48.216;16.482;2022-12-18T05:04:13;38.73;;;18.10;;
35518;SDS011;21627;48.216;16.482;2022-12-18T05:06:41;41.10;;;18.73;;
35518;SDS011;21627;48.216;16.482;2022-12-18T05:09:08;38.13;;;18.13;;
35518;SDS011;21627;48.216;16.482;2022-12-18T05:11:35;39.10;;;18.17;;
35518;SDS011;21627;48.216;16.482;2022-12-18T05:14:02;43.47;;;19.43;;
35518;SDS011;21627;48.216;16.482;2022-12-18T05:16:30;40.57;;;17.77;;
35518;SDS011;21627;48.216;16.482;2022-12-18T05:18:57;42.50;;;16.80;;
35518;SDS011;21627;48.216;16.482;2022-12-18T05:21:24;32.87;;;16.40;;
35518;SDS011;21627;48.216;16.482;2022-12-18T05:23:52;39.97;;;19.07;;
35518;SDS011;21627;48.216;16.482;2022-12-18T05:26:19;40.43;;;18.17;;
35518;SDS011;21627;48.216;16.482;2022-12-18T05:28:46;39.37;;;16.93;;
35518;SDS011;21627;48.216;16.482;2022-12-18T05:31:13;40.37;;;18.40;;
35518;SDS011;21627;48.216;16.482;2022-12-18T05:33:41;38.20;;;17.23;;
35518;SDS011;21627;48.216;16.482;2022-12-18T05:36:09;33.93;;;17.17;;
35518;SDS011;21627;48.216;16.482;2022-12-18T05:38:37;33.07;;;16.73;;
35518;SDS011;21627;48.216;16.482;2022-12-18T05:41:06;38.20;;;18.30;;
35518;SDS011;21627;48.216;16.482;2022-12-18T05:43:38;38.33;;;17.93;;
35518;SDS011;21627;48.216;16.482;2022-12-18T05:46:07;40.50;;;16.63;;
35518;SDS011;21627;48.216;16.482;2022-12-18T05:48:42;35.67;;;16.88;;
35518;SDS011;21627;48.216;16.482;2022-12-18T05:51:11;36.57;;;17.17;;
35518;SDS011;21627;48.216;16.482;2022-12-18T05:53:42;40.03;;;17.97;;
35518;SDS011;21627;48.216;16.482;2022-12-18T05:56:14;37.47;;;17.17;;
35518;SDS011;21627;48.216;16.482;2022-12-18T05:58:46;33.83;;;16.10;;
35518;SDS011;21627;48.216;16.482;2022-12-18T06:01:18;35.97;;;16.97;;
35518;SDS011;21627;48.216;16.482;2022-12-18T06:03:49;37.77;;;16.63;;
35518;SDS011;21627;48.216;16.482;2022-12-18T06:06:18;35.27;;;17.97;;
35518;SDS011;21627;48.216;16.482;2022-12-18T06:08:53;38.37;;;17.77;;
35518;SDS011;21627;48.216;16.482;2022-12-18T06:11:26;38.70;;;17.77;;
35518;SDS011;21627;48.216;16.482;2022-12-18T06:13:54;38.03;;;17.23;;
35518;SDS011;21627;48.216;16.482;2022-12-18T06:16:25;42.83;;;18.50;;
35518;SDS011;21627;48.216;16.482;2022-12-18T06:18:56;36.67;;;16.80;;
35518;SDS011;21627;48.216;16.482;2022-12-18T06:21:27;39.77;;;18.53;;
35518;SDS011;21627;48.216;16.482;2022-12-18T06:23:57;38.40;;;17.43;;
35518;SDS011;21627;48.216;16.482;2022-12-18T06:26:24;36.57;;;16.87;;
35518;SDS011;21627;48.216;16.482;2022-12-18T06:28:54;35.57;;;16.90;;
35518;SDS011;21627;48.216;16.482;2022-12-18T06:31:21;40.90;;;17.70;;
35518;SDS011;21627;48.216;16.482;2022-12-18T06:33:48;36.13;;;18.27;;
35518;SDS011;21627;48.216;16.482;2022-12-18T06:36:15;36.57;;;17.47;;
35518;SDS011;21627;48.216;16.482;2022-12-18T06:38:43;40.43;;;17.37;;
35518;SDS011;21627;48.216;16.482;2022-12-18T06:41:11;38.23;;;17.67;;
35518;SDS011;21627;48.216;16.482;2022-12-18T06:43:42;41.93;;;18.57;;
35518;SDS011;21627;48.216;16.482;2022-12-18T06:46:10;44.97;;;19.43;;
35518;SDS011;21627;48.216;16.482;2022-12-18T06:48:38;46.67;;;20.67;;
35518;SDS011;21627;48.216;16.482;2022-12-18T06:51:05;45.03;;;20.10;;
35518;SDS011;21627;48.216;16.482;2022-12-18T06:53:33;43.13;;;19.30;;
35518;SDS011;21627;48.216;16.482;2022-12-18T06:56:04;37.53;;;19.60;;
35518;SDS011;21627;48.216;16.482;2022-12-18T06:58:36;45.10;;;19.33;;
35518;SDS011;21627;48.216;16.482;2022-12-18T07:01:08;42.33;;;20.60;;
35518;SDS011;21627;48.216;16.482;2022-12-18T07:03:38;47.67;;;22.70;;
35518;SDS011;21627;48.216;16.482;2022-12-18T07:06:12;45.23;;;21.27;;
35518;SDS011;21627;48.216;16.482;2022-12-18T07:08:42;50.95;;;22.38;;
35518;SDS011;21627;48.216;16.482;2022-12-18T07:11:11;44.80;;;21.00;;
35518;SDS011;21627;48.216;16.482;2022-12-18T07:13:38;47.67;;;22.73;;
35518;SDS011;21627;48.216;16.482;2022-12-18T07:16:10;50.43;;;23.27;;
35518;SDS011;21627;48.216;16.482;2022-12-18T07:18:49;44.60;;;21.63;;
35518;SDS011;21627;48.216;16.482;2022-12-18T07:21:17;47.87;;;24.03;;
35518;SDS011;21627;48.216;16.482;2022-12-18T07:23:46;50.47;;;23.27;;
35518;SDS011;21627;48.216;16.482;2022-12-18T07:26:15;68.07;;;27.13;;
35518;SDS011;21627;48.216;16.482;2022-12-18T07:28:45;58.73;;;26.93;;
35518;SDS011;21627;48.216;16.482;2022-12-18T07:31:14;58.13;;;25.73;;
35518;SDS011;21627;48.216;16.482;2022-12-18T07:33:47;60.25;;;25.25;;
35518;SDS011;21627;48.216;16.482;2022-12-18T07:36:16;47.13;;;22.53;;
35518;SDS011;21627;48.216;16.482;2022-12-18T07:38:46;50.63;;;21.67;;
35518;SDS011;21627;48.216;16.482;2022-12-18T07:41:15;56.17;;;25.27;;
35518;SDS011;21627;48.216;16.482;2022-12-18T07:43:45;50.53;;;22.40;;
35518;SDS011;21627;48.216;16.482;2022-12-18T07:46:13;51.37;;;22.27;;
35518;SDS011;21627;48.216;16.482;2022-12-18T07:48:41;49.57;;;21.20;;
35518;SDS011;21627;48.216;16.482;2022-12-18T07:51:15;50.60;;;22.47;;
35518;SDS011;21627;48.216;16.482;2022-12-18T07:53:47;48.07;;;21.33;;
35518;SDS011;21627;48.216;16.482;2022-12-18T07:56:18;46.30;;;20.83;;
35518;SDS011;21627;48.216;16.482;2022-12-18T07:58:56;51.60;;;21.93;;
35518;SDS011;21627;48.216;16.482;2022-12-18T08:01:24;46.87;;;21.93;;
35518;SDS011;21627;48.216;16.482;2022-12-18T08:03:54;50.47;;;22.77;;
35518;SDS011;21627;48.216;16.482;2022-12-18T08:06:21;55.70;;;22.43;;
35518;SDS011;21627;48.216;16.482;2022-12-18T08:08:53;50.70;;;22.43;;
35518;SDS011;21627;48.216;16.482;2022-12-18T08:11:22;58.10;;;23.77;;
35518;SDS011;21627;48.216;16.482;2022-12-18T08:13:52;54.33;;;23.73;;
35518;SDS011;21627;48.216;16.482;2022-12-18T08:16:20;60.07;;;25.57;;
35518;SDS011;21627;48.216;16.482;2022-12-18T08:18:48;56.70;;;24.50;;
35518;SDS011;21627;48.216;16.482;2022-12-18T08:21:19;58.30;;;26.17;;
35518;SDS011;21627;48.216;16.482;2022-12-18T08:23:52;55.73;;;25.87;;
35518;SDS011;21627;48.216;16.482;2022-12-18T08:26:22;59.87;;;24.93;;
35518;SDS011;21627;48.216;16.482;2022-12-18T08:28:53;59.07;;;26.47;;
35518;SDS011;21627;48.216;16.482;2022-12-18T08:31:22;63.90;;;27.13;;
35518;SDS011;21627;48.216;16.482;2022-12-18T08:33:50;52.23;;;25.23;;
35518;SDS011;21627;48.216;16.482;2022-12-18T08:36:21;52.10;;;23.17;;
35518;SDS011;21627;48.216;16.482;2022-12-18T08:38:50;60.37;;;26.10;;
35518;SDS011;21627;48.216;16.482;2022-12-18T08:41:18;56.53;;;25.40;;
35518;SDS011;21627;48.216;16.482;2022-12-18T08:43:47;60.20;;;25.37;;
35518;SDS011;21627;48.216;16.482;2022-12-18T08:46:34;60.38;;;28.27;;
35518;SDS011;21627;48.216;16.482;2022-12-18T08:49:06;52.70;;;24.73;;
35518;SDS011;21627;48.216;16.482;2022-12-18T08:51:34;57.47;;;25.83;;
35518;SDS011;21627;48.216;16.482;2022-12-18T08:54:03;51.43;;;24.23;;
35518;SDS011;21627;48.216;16.482;2022-12-18T08:56:32;59.57;;;24.57;;
35518;SDS011;21627;48.216;16.482;2022-12-18T08:58:59;54.83;;;25.00;;
35518;SDS011;21627;48.216;16.482;2022-12-18T09:01:27;48.97;;;22.77;;
35518;SDS011;21627;48.216;16.482;2022-12-18T09:03:54;47.03;;;22.93;;
35518;SDS011;21627;48.216;16.482;2022-12-18T09:06:22;55.27;;;23.10;;
35518;SDS011;21627;48.216;16.482;2022-12-18T09:08:50;50.90;;;22.60;;
35518;SDS011;21627;48.216;16.482;2022-12-18T09:11:20;45.53;;;21.90;;
35518;SDS011;21627;48.216;16.482;2022-12-18T09:13:49;49.73;;;21.20;;
35518;SDS011;21627;48.216;16.482;2022-12-18T09:16:17;45.63;;;21.67;;
35518;SDS011;21627;48.216;16.482;2022-12-18T09:18:46;44.57;;;21.37;;
35518;SDS011;21627;48.216;16.482;2022-12-18T09:21:18;44.57;;;22.40;;
35518;SDS011;21627;48.216;16.482;2022-12-18T09:23:50;56.30;;;21.53;;
35518;SDS011;21627;48.216;16.482;2022-12-18T09:26:19;55.97;;;21.33;;
35518;SDS011;21627;48.216;16.482;2022-12-18T09:28:47;49.27;;;22.03;;
35518;SDS011;21627;48.216;16.482;2022-12-18T09:31:16;49.03;;;22.83;;
35518;SDS011;21627;48.216;16.482;2022-12-18T09:33:45;41.93;;;21.33;;
35518;SDS011;21627;48.216;16.482;2022-12-18T09:36:14;44.87;;;21.10;;
35518;SDS011;21627;48.216;16.482;2022-12-18T09:38:44;46.20;;;20.93;;
35518;SDS011;21627;48.216;16.482;2022-12-18T09:46:47;46.77;;;21.57;;
35518;SDS011;21627;48.216;16.482;2022-12-18T09:49:26;46.57;;;21.67;;
35518;SDS011;21627;48.216;16.482;2022-12-18T09:52:02;46.00;;;21.93;;
35518;SDS011;21627;48.216;16.482;2022-12-18T09:54:40;55.10;;;22.33;;
35518;SDS011;21627;48.216;16.482;2022-12-18T09:57:17;42.97;;;20.53;;
35518;SDS011;21627;48.216;16.482;2022-12-18T09:59:56;53.17;;;22.53;;
35518;SDS011;21627;48.216;16.482;2022-12-18T10:02:50;47.93;;;20.20;;
35518;SDS011;21627;48.216;16.482;2022-12-18T10:05:42;46.90;;;20.47;;
35518;SDS011;21627;48.216;16.482;2022-12-18T10:10:57;47.37;;;21.20;;
35518;SDS011;21627;48.216;16.482;2022-12-18T10:13:46;50.92;;;22.05;;
35518;SDS011;21627;48.216;16.482;2022-12-18T10:21:41;55.50;;;22.00;;
35518;SDS011;21627;48.216;16.482;2022-12-18T10:27:38;46.90;;;20.90;;
35518;SDS011;21627;48.216;16.482;2022-12-18T10:30:12;44.70;;;20.83;;
35518;SDS011;21627;48.216;16.482;2022-12-18T10:32:43;47.50;;;20.80;;
35518;SDS011;21627;48.216;16.482;2022-12-18T10:35:16;47.23;;;21.53;;
35518;SDS011;21627;48.216;16.482;2022-12-18T10:40:33;48.30;;;20.03;;
35518;SDS011;21627;48.216;16.482;2022-12-18T10:43:28;50.90;;;21.07;;
35518;SDS011;21627;48.216;16.482;2022-12-18T10:54:04;45.67;;;19.87;;
35518;SDS011;21627;48.216;16.482;2022-12-18T10:56:40;41.53;;;19.20;;
35518;SDS011;21627;48.216;16.482;2022-12-18T10:59:13;43.27;;;20.20;;
35518;SDS011;21627;48.216;16.482;2022-12-18T11:04:28;58.43;;;21.90;;
35518;SDS011;21627;48.216;16.482;2022-12-18T11:07:02;41.37;;;19.17;;
35518;SDS011;21627;48.216;16.482;2022-12-18T11:09:40;44.70;;;19.53;;
35518;SDS011;21627;48.216;16.482;2022-12-18T11:14:49;56.63;;;20.67;;
35518;SDS011;21627;48.216;16.482;2022-12-18T11:17:28;46.78;;;19.23;;
35518;SDS011;21627;48.216;16.482;2022-12-18T11:20:05;47.03;;;19.70;;
35518;SDS011;21627;48.216;16.482;2022-12-18T11:22:56;52.83;;;20.47;;
35518;SDS011;21627;48.216;16.482;2022-12-18T11:25:32;50.33;;;20.47;;
35518;SDS011;21627;48.216;16.482;2022-12-18T11:28:05;58.00;;;21.47;;
35518;SDS011;21627;48.216;16.482;2022-12-18T11:33:55;47.33;;;20.77;;
35518;SDS011;21627;48.216;16.482;2022-12-18T11:36:49;43.65;;;19.35;;
35518;SDS011;21627;48.216;16.482;2022-12-18T11:42:09;43.77;;;19.77;;
35518;SDS011;21627;48.216;16.482;2022-12-18T11:44:59;44.30;;;19.37;;
35518;SDS011;21627;48.216;16.482;2022-12-18T11:47:44;52.43;;;21.80;;
35518;SDS011;21627;48.216;16.482;2022-12-18T11:50:21;47.43;;;19.20;;
35518;SDS011;21627;48.216;16.482;2022-12-18T11:52:54;50.08;;;21.60;;
35518;SDS011;21627;48.216;16.482;2022-12-18T11:58:59;46.80;;;21.10;;
35518;SDS011;21627;48.216;16.482;2022-12-18T12:09:44;51.80;;;21.37;;
35518;SDS011;21627;48.216;16.482;2022-12-18T12:12:41;54.50;;;23.17;;
35518;SDS011;21627;48.216;16.482;2022-12-18T12:15:38;46.10;;;21.87;;
35518;SDS011;21627;48.216;16.482;2022-12-18T12:40:46;59.10;;;21.87;;
35518;SDS011;21627;48.216;16.482;2022-12-18T12:46:09;52.93;;;22.03;;
35518;SDS011;21627;48.216;16.482;2022-12-18T12:53:48;52.67;;;22.17;;
35518;SDS011;21627;48.216;16.482;2022-12-18T12:56:18;51.73;;;22.00;;
35518;SDS011;21627;48.216;16.482;2022-12-18T13:01:52;51.90;;;22.30;;
35518;SDS011;21627;48.216;16.482;2022-12-18T13:15:47;59.17;;;22.93;;
35518;SDS011;21627;48.216;16.482;2022-12-18T13:18:31;51.23;;;23.50;;
35518;SDS011;21627;48.216;16.482;2022-12-18T13:21:04;54.80;;;21.73;;
35518;SDS011;21627;48.216;16.482;2022-12-18T13:23:58;53.53;;;23.10;;
35518;SDS011;21627;48.216;16.482;2022-12-18T13:26:49;51.03;;;21.63;;
35518;SDS011;21627;48.216;16.482;2022-12-18T13:32:21;56.87;;;23.27;;
35518;SDS011;21627;48.216;16.482;2022-12-18T13:37:51;58.87;;;24.40;;
35518;SDS011;21627;48.216;16.482;2022-12-18T13:45:50;64.93;;;27.03;;
35518;SDS011;21627;48.216;16.482;2022-12-18T13:48:33;68.70;;;25.92;;
35518;SDS011;21627;48.216;16.482;2022-12-18T13:51:09;73.00;;;26.87;;
35518;SDS011;21627;48.216;16.482;2022-12-18T13:53:44;72.73;;;28.13;;
35518;SDS011;21627;48.216;16.482;2022-12-18T13:56:22;78.50;;;27.67;;
35518;SDS011;21627;48.216;16.482;2022-12-18T13:59:15;79.60;;;28.40;;
35518;SDS011;21627;48.216;16.482;2022-12-18T14:01:54;74.10;;;26.90;;
35518;SDS011;21627;48.216;16.482;2022-12-18T14:04:33;62.70;;;26.03;;
35518;SDS011;21627;48.216;16.482;2022-12-18T14:07:06;66.90;;;27.30;;
35518;SDS011;21627;48.216;16.482;2022-12-18T14:09:47;67.90;;;27.83;;
35518;SDS011;21627;48.216;16.482;2022-12-18T14:26:45;67.10;;;28.33;;
35518;SDS011;21627;48.216;16.482;2022-12-18T14:34:44;66.63;;;26.70;;
35518;SDS011;21627;48.216;16.482;2022-12-18T14:37:16;69.40;;;30.23;;
35518;SDS011;21627;48.216;16.482;2022-12-18T14:39:52;74.43;;;27.83;;
35518;SDS011;21627;48.216;16.482;2022-12-18T14:42:36;72.63;;;26.63;;
35518;SDS011;21627;48.216;16.482;2022-12-18T14:50:41;67.67;;;27.70;;
35518;SDS011;21627;48.216;16.482;2022-12-18T14:53:19;71.80;;;26.87;;
35518;SDS011;21627;48.216;16.482;2022-12-18T14:58:22;65.53;;;24.90;;
35518;SDS011;21627;48.216;16.482;2022-12-18T15:00:52;76.57;;;27.53;;
35518;SDS011;21627;48.216;16.482;2022-12-18T15:03:21;63.07;;;23.80;;
35518;SDS011;21627;48.216;16.482;2022-12-18T15:05:51;69.77;;;25.37;;
35518;SDS011;21627;48.216;16.482;2022-12-18T15:08:35;65.93;;;24.97;;
35518;SDS011;21627;48.216;16.482;2022-12-18T15:11:22;54.73;;;24.17;;
35518;SDS011;21627;48.216;16.482;2022-12-18T15:16:59;66.13;;;25.20;;
35518;SDS011;21627;48.216;16.482;2022-12-18T15:19:37;64.73;;;25.73;;
35518;SDS011;21627;48.216;16.482;2022-12-18T15:22:18;67.07;;;26.00;;
35518;SDS011;21627;48.216;16.482;2022-12-18T15:24:53;62.83;;;24.10;;
35518;SDS011;21627;48.216;16.482;2022-12-18T15:35:39;62.87;;;25.57;;
35518;SDS011;21627;48.216;16.482;2022-12-18T15:38:12;65.03;;;26.97;;
35518;SDS011;21627;48.216;16.482;2022-12-18T15:40:41;69.77;;;26.10;;
35518;SDS011;21627;48.216;16.482;2022-12-18T15:43:09;67.30;;;25.50;;
35518;SDS011;21627;48.216;16.482;2022-12-18T15:45:55;65.40;;;26.43;;
35518;SDS011;21627;48.216;16.482;2022-12-18T15:48:24;66.20;;;27.17;;
35518;SDS011;21627;48.216;16.482;2022-12-18T15:50:52;62.53;;;28.10;;
35518;SDS011;21627;48.216;16.482;2022-12-18T15:53:25;70.97;;;28.20;;
35518;SDS011;21627;48.216;16.482;2022-12-18T15:55:59;61.23;;;25.67;;
35518;SDS011;21627;48.216;16.482;2022-12-18T15:58:48;63.90;;;27.33;;
35518;SDS011;21627;48.216;16.482;2022-12-18T16:01:17;67.83;;;26.87;;
35518;SDS011;21627;48.216;16.482;2022-12-18T16:03:45;66.07;;;27.27;;
35518;SDS011;21627;48.216;16.482;2022-12-18T16:06:17;61.73;;;26.37;;
35518;SDS011;21627;48.216;16.482;2022-12-18T16:08:45;65.87;;;27.70;;
35518;SDS011;21627;48.216;16.482;2022-12-18T16:11:23;70.53;;;27.67;;
35518;SDS011;21627;48.216;16.482;2022-12-18T16:14:22;68.23;;;28.03;;
35518;SDS011;21627;48.216;16.482;2022-12-18T16:16:59;72.07;;;27.37;;
35518;SDS011;21627;48.216;16.482;2022-12-18T16:19:29;69.03;;;27.73;;
35518;SDS011;21627;48.216;16.482;2022-12-18T16:21:59;61.60;;;28.20;;
35518;SDS011;21627;48.216;16.482;2022-12-18T16:24:30;60.93;;;27.00;;
35518;SDS011;21627;48.216;16.482;2022-12-18T16:27:02;68.57;;;27.27;;
35518;SDS011;21627;48.216;16.482;2022-12-18T16:29:33;76.90;;;27.57;;
35518;SDS011;21627;48.216;16.482;2022-12-18T16:32:01;69.33;;;26.57;;
35518;SDS011;21627;48.216;16.482;2022-12-18T16:34:31;69.20;;;28.20;;
35518;SDS011;21627;48.216;16.482;2022-12-18T16:37:03;64.93;;;27.10;;
35518;SDS011;21627;48.216;16.482;2022-12-18T16:39:34;71.63;;;27.37;;
35518;SDS011;21627;48.216;16.482;2022-12-18T16:42:13;67.47;;;26.60;;
35518;SDS011;21627;48.216;16.482;2022-12-18T16:44:46;70.67;;;27.00;;
35518;SDS011;21627;48.216;16.482;2022-12-18T16:47:16;58.30;;;25.60;;
35518;SDS011;21627;48.216;16.482;2022-12-18T16:49:44;57.83;;;24.33;;
35518;SDS011;21627;48.216;16.482;2022-12-18T16:52:15;59.90;;;25.43;;
35518;SDS011;21627;48.216;16.482;2022-12-18T16:54:44;58.40;;;23.80;;
35518;SDS011;21627;48.216;16.482;2022-12-18T16:57:18;55.77;;;24.53;;
35518;SDS011;21627;48.216;16.482;2022-12-18T16:59:51;52.77;;;24.33;;
35518;SDS011;21627;48.216;16.482;2022-12-18T17:02:20;60.70;;;25.30;;
35518;SDS011;21627;48.216;16.482;2022-12-18T17:04:55;59.13;;;23.73;;
35518;SDS011;21627;48.216;16.482;2022-12-18T17:07:25;56.60;;;24.73;;
35518;SDS011;21627;48.216;16.482;2022-12-18T17:09:54;57.70;;;24.60;;
35518;SDS011;21627;48.216;16.482;2022-12-18T17:12:22;52.33;;;24.73;;
35518;SDS011;21627;48.216;16.482;2022-12-18T17:14:53;58.03;;;24.70;;
35518;SDS011;21627;48.216;16.482;2022-12-18T17:17:21;55.83;;;25.47;;
35518;SDS011;21627;48.216;16.482;2022-12-18T17:19:50;58.50;;;24.57;;
35518;SDS011;21627;48.216;16.482;2022-12-18T17:22:20;55.60;;;23.73;;
35518;SDS011;21627;48.216;16.482;2022-12-18T17:24:50;61.57;;;27.43;;
35518;SDS011;21627;48.216;16.482;2022-12-18T17:27:21;59.40;;;26.93;;
35518;SDS011;21627;48.216;16.482;2022-12-18T17:29:49;60.30;;;25.73;;
35518;SDS011;21627;48.216;16.482;2022-12-18T17:32:19;69.73;;;26.47;;
35518;SDS011;21627;48.216;16.482;2022-12-18T17:34:48;66.10;;;27.60;;